Portada
METAR-TAF:

METAR-TAF

Aeroports :

Singapur, Singapur

latitud: 01-25-08N, longitud: 103-51-57E, altitud: 11 m

Observació

L'informe es va fer fa 15 minuts, a les 16:00 UTC
Vent 8 kt del Sud-Est, variant entre Est/Sud-Est i Sud
Temperatura 29°C
Humitat 74%
Pressió 1010 hPa
Visibilitat 10 km o més
Escasses núvols a una alçada de 1600 ft
Cel ennuvolat a una alçada de 30000 ft

METAR: WSSL 191600Z 14008KT 110V170 9999 FEW016 BKN300 29/24 Q1010

Hora: 00:15 (16:15 UTC)

Pronòstic

L'informe es va fer fa 5 hores i 15 minuts, a les 11:00 UTC
Pronòstic vàlid del 19 a les 12 UTC al 20 a les 18 UTC
Vent 10 kt del Sud/Sud-Est
Visibilitat 10 km o més
Escasses núvols a una alçada de 1500 ft
Núvols disperses a una alçada de 2000 ft

TAF: WSSL 191100Z 1912/2018 16010KT 9999 FEW015 SCT020

Observacions i pronòstics meteorològics de més de 4000 aeroports (METAR i TAF).

Les estacions disponibles són els punts grocs i vermells al mapa.

Posi el ratolí al punt desitjat per veure el nom de l'estació.

Feu clic per veure les observacions i els pronòstics meteorològics.

Per canviar el mapa: feu clic els botons verds amb una creu de color negre per apropar; al botó verd amb un guió per allunyar la imatge; o en les fletxes verdes per a mapes adjacents.


METAR-TAF: